createdAt,value
2022-08-02T00:01:04.731Z,3.00
2022-08-02T00:03:33.128Z,3.10
2022-08-02T00:06:01.778Z,3.40
2022-08-02T00:08:30.022Z,3.00
2022-08-02T00:11:17.045Z,3.00
2022-08-02T00:14:04.892Z,3.30
2022-08-02T00:16:51.720Z,3.20
2022-08-02T00:19:38.837Z,3.30
2022-08-02T00:22:07.500Z,2.80
2022-08-02T00:24:35.954Z,3.20
2022-08-02T00:27:04.997Z,3.10
2022-08-02T00:29:50.474Z,3.30
2022-08-02T00:32:23.561Z,4.60
2022-08-02T00:34:52.528Z,3.60
2022-08-02T00:37:20.735Z,3.40
2022-08-02T00:39:48.956Z,3.40
2022-08-02T00:42:17.516Z,3.30
2022-08-02T00:44:45.859Z,3.80
2022-08-02T00:47:19.526Z,3.70
2022-08-02T00:49:48.429Z,3.90
2022-08-02T00:52:16.707Z,3.80
2022-08-02T00:54:44.974Z,3.80
2022-08-02T00:57:13.464Z,4.40
2022-08-02T00:59:42.283Z,4.10
2022-08-02T01:02:10.866Z,4.50
2022-08-02T01:04:40.542Z,4.40
2022-08-02T01:07:12.351Z,4.90
2022-08-02T01:09:45.824Z,4.30
2022-08-02T01:12:14.733Z,5.20
2022-08-02T01:14:48.240Z,4.50
2022-08-02T01:17:50.865Z,4.80
2022-08-02T01:20:25.318Z,4.60
2022-08-02T01:23:50.896Z,4.30
2022-08-02T01:26:29.094Z,4.40
2022-08-02T01:29:29.392Z,5.10
2022-08-02T01:32:12.338Z,4.90
2022-08-02T01:34:57.747Z,4.60
2022-08-02T01:37:41.690Z,4.80
2022-08-02T01:40:14.271Z,4.60
2022-08-02T01:42:47.595Z,4.80
2022-08-02T01:45:18.907Z,4.30
2022-08-02T01:47:49.947Z,4.70
2022-08-02T01:50:23.679Z,4.80
2022-08-02T01:52:55.242Z,4.30
2022-08-02T01:55:58.121Z,4.30
2022-08-02T01:58:27.705Z,4.50
2022-08-02T02:00:58.389Z,5.00
2022-08-02T02:03:29.432Z,4.80
2022-08-02T02:06:00.036Z,4.90
2022-08-02T02:08:33.275Z,4.70
2022-08-02T02:12:11.499Z,5.30
2022-08-02T02:13:53.505Z,4.60
2022-08-02T02:16:23.217Z,4.90
2022-08-02T02:18:53.676Z,4.80
2022-08-02T02:21:22.396Z,4.70
2022-08-02T02:23:51.128Z,4.50
2022-08-02T02:26:20.896Z,4.50
2022-08-02T02:29:04.813Z,4.10
2022-08-02T02:31:37.380Z,4.70
2022-08-02T02:34:10.678Z,4.50
2022-08-02T02:36:47.923Z,4.60
2022-08-02T02:39:20.909Z,4.30
2022-08-02T02:41:51.607Z,4.00
2022-08-02T02:44:21.781Z,4.40
2022-08-02T02:46:52.998Z,4.00
2022-08-02T02:49:23.297Z,3.90
2022-08-02T02:51:53.257Z,4.10
2022-08-02T02:54:33.787Z,3.60
2022-08-02T02:57:05.979Z,3.60
2022-08-02T02:59:42.554Z,3.80
2022-08-02T03:02:19.229Z,3.70
2022-08-02T03:04:55.856Z,3.50
2022-08-02T03:07:26.418Z,3.40
2022-08-02T03:09:55.358Z,3.40
2022-08-02T03:12:30.958Z,3.30
2022-08-02T03:15:04.441Z,3.30
2022-08-02T03:17:44.515Z,3.50
2022-08-02T03:20:18.505Z,3.40
2022-08-02T03:22:47.662Z,3.00
2022-08-02T03:25:17.530Z,3.30
2022-08-02T03:27:46.688Z,3.50
2022-08-02T03:30:15.626Z,3.70
2022-08-02T03:32:47.194Z,3.30
2022-08-02T03:35:23.346Z,3.00
2022-08-02T03:37:56.033Z,4.30
2022-08-02T03:42:54.748Z,3.40
2022-08-02T03:45:24.659Z,4.10
2022-08-02T03:47:53.218Z,3.30
2022-08-02T03:50:25.787Z,2.80
2022-08-02T03:52:54.789Z,3.30
2022-08-02T03:55:23.443Z,3.90
2022-08-02T03:57:52.001Z,3.00
2022-08-02T04:00:23.191Z,4.30
2022-08-02T04:02:52.592Z,2.90
2022-08-02T04:05:20.906Z,2.80
2022-08-02T04:08:33.995Z,3.50
2022-08-02T04:10:56.732Z,3.40
2022-08-02T04:13:35.844Z,3.10
2022-08-02T04:16:15.042Z,2.80
2022-08-02T04:18:55.883Z,2.50
2022-08-02T04:21:49.075Z,3.80
2022-08-02T04:24:18.608Z,3.10
2022-08-02T04:26:49.089Z,3.00
2022-08-02T04:29:19.527Z,3.00
2022-08-02T04:31:48.636Z,3.10
2022-08-02T04:34:17.593Z,3.80
2022-08-02T04:36:47.172Z,3.20
2022-08-02T04:39:15.681Z,2.80
2022-08-02T04:41:46.507Z,3.20
2022-08-02T04:44:15.409Z,3.00
2022-08-02T04:46:44.809Z,2.70
2022-08-02T04:49:13.388Z,2.60
2022-08-02T04:51:43.620Z,2.40
2022-08-02T04:54:12.345Z,2.30
2022-08-02T04:56:41.476Z,2.50
2022-08-02T04:59:09.906Z,2.40
2022-08-02T05:01:42.764Z,3.10
2022-08-02T05:04:11.368Z,2.80
2022-08-02T05:06:40.005Z,3.30
2022-08-02T05:09:08.735Z,2.60
2022-08-02T05:11:37.482Z,2.30
2022-08-02T05:14:06.403Z,2.90
2022-08-02T05:16:34.615Z,2.60
2022-08-02T05:19:03.554Z,3.30
2022-08-02T05:21:32.195Z,2.70
2022-08-02T05:24:00.736Z,2.00
2022-08-02T05:26:29.312Z,2.60
2022-08-02T05:28:57.665Z,2.40
2022-08-02T05:31:25.977Z,1.90
2022-08-02T05:33:54.452Z,2.10
2022-08-02T05:36:22.933Z,1.80
2022-08-02T05:38:51.951Z,2.10
2022-08-02T05:41:21.077Z,1.60
2022-08-02T05:43:49.403Z,2.50
2022-08-02T05:46:17.671Z,2.60
2022-08-02T05:48:46.106Z,1.60
2022-08-02T05:51:32.963Z,1.90
2022-08-02T05:54:05.241Z,1.80
2022-08-02T05:56:38.936Z,1.60
2022-08-02T05:59:18.054Z,1.50
2022-08-02T06:01:49.275Z,2.10
2022-08-02T06:04:30.833Z,1.60
2022-08-02T06:07:02.934Z,1.60
2022-08-02T06:09:32.927Z,1.90
2022-08-02T06:12:03.538Z,1.60
2022-08-02T06:14:33.740Z,1.90
2022-08-02T06:17:05.839Z,1.60
2022-08-02T06:19:51.696Z,2.80
2022-08-02T06:22:35.943Z,1.60
2022-08-02T06:25:06.461Z,2.10
2022-08-02T06:27:41.427Z,1.50
2022-08-02T06:30:11.273Z,2.00
2022-08-02T06:32:39.933Z,2.10
2022-08-02T06:35:08.923Z,1.40
2022-08-02T06:37:48.375Z,1.40
2022-08-02T06:41:04.834Z,2.30
2022-08-02T06:43:45.116Z,1.40
2022-08-02T06:46:37.766Z,1.20
2022-08-02T06:49:02.593Z,1.40
2022-08-02T06:51:31.309Z,1.40
2022-08-02T06:53:59.803Z,1.10
2022-08-02T06:56:28.285Z,1.40
2022-08-02T06:58:56.768Z,1.70
2022-08-02T07:01:25.034Z,1.30
2022-08-02T07:03:53.569Z,1.20
2022-08-02T07:06:22.415Z,2.10
2022-08-02T07:09:18.036Z,1.10
2022-08-02T07:11:39.403Z,1.90
2022-08-02T07:14:07.727Z,1.40
2022-08-02T07:16:35.897Z,1.40
2022-08-02T07:19:04.581Z,2.10
2022-08-02T07:21:56.980Z,1.50
2022-08-02T07:24:21.469Z,1.70
2022-08-02T07:27:09.874Z,1.80
2022-08-02T07:29:46.518Z,1.70
2022-08-02T07:32:22.185Z,1.10
2022-08-02T07:34:53.419Z,1.30
2022-08-02T07:40:13.854Z,1.30
2022-08-02T07:45:13.669Z,1.70
2022-08-02T07:47:44.207Z,1.90
2022-08-02T07:50:15.116Z,2.60
2022-08-02T07:52:44.947Z,1.20
2022-08-02T07:55:15.092Z,1.40
2022-08-02T07:57:46.399Z,1.50
2022-08-02T08:00:17.669Z,1.40
2022-08-02T08:02:47.476Z,1.30
2022-08-02T08:05:16.073Z,2.00
2022-08-02T08:07:44.570Z,1.60
2022-08-02T08:10:12.977Z,1.40
2022-08-02T08:12:41.260Z,1.70
2022-08-02T08:15:10.931Z,1.40
2022-08-02T08:17:39.395Z,1.50
2022-08-02T08:20:08.855Z,1.70
2022-08-02T08:22:38.696Z,1.40
2022-08-02T08:25:07.312Z,1.40
2022-08-02T08:27:36.122Z,1.20
2022-08-02T08:30:05.201Z,1.30
2022-08-02T08:32:33.706Z,1.20
2022-08-02T08:35:03.731Z,1.10
2022-08-02T08:37:40.950Z,1.90
2022-08-02T08:40:11.478Z,1.20
2022-08-02T08:42:40.500Z,1.50
2022-08-02T08:45:09.665Z,1.20
2022-08-02T08:47:42.713Z,1.60
2022-08-02T08:50:21.532Z,1.40
2022-08-02T08:53:05.053Z,1.50
2022-08-02T08:55:37.230Z,1.60
2022-08-02T09:00:36.091Z,1.60
2022-08-02T09:03:06.581Z,1.30
2022-08-02T09:05:36.966Z,1.20
2022-08-02T09:08:06.676Z,1.30
2022-08-02T09:10:40.100Z,1.40
2022-08-02T09:13:38.995Z,1.80
2022-08-02T09:16:12.597Z,0.80
2022-08-02T09:18:45.022Z,0.90
2022-08-02T09:23:48.141Z,1.20
2022-08-02T09:26:22.196Z,1.80
2022-08-02T09:28:52.792Z,1.20
2022-08-02T09:31:23.146Z,1.10
2022-08-02T09:33:57.459Z,1.50
2022-08-02T09:36:27.425Z,1.50
2022-08-02T09:39:01.861Z,1.50
2022-08-02T09:41:34.143Z,1.40
2022-08-02T09:44:06.969Z,1.40
2022-08-02T09:46:38.813Z,1.50
2022-08-02T09:49:19.132Z,1.10
2022-08-02T09:51:47.819Z,1.10
2022-08-02T09:54:19.459Z,1.20
2022-08-02T09:56:50.659Z,1.10
2022-08-02T09:59:21.739Z,1.30
2022-08-02T10:01:58.964Z,1.20
2022-08-02T10:04:34.409Z,1.60
2022-08-02T10:07:22.517Z,1.30
2022-08-02T10:09:52.429Z,1.80
2022-08-02T10:12:23.189Z,1.20
2022-08-02T10:14:52.230Z,1.20
2022-08-02T10:17:22.067Z,1.40
2022-08-02T10:20:03.180Z,0.90
2022-08-02T10:22:34.534Z,1.10
2022-08-02T10:25:07.103Z,1.10
2022-08-02T10:28:02.486Z,1.10
2022-08-02T10:30:27.491Z,1.20
2022-08-02T10:32:58.031Z,1.10
2022-08-02T10:35:27.176Z,0.90
2022-08-02T10:38:04.393Z,1.20
2022-08-02T10:40:55.481Z,1.60
2022-08-02T10:43:33.201Z,1.20
2022-08-02T10:46:21.136Z,1.20
2022-08-02T10:49:37.503Z,2.10
2022-08-02T10:52:07.886Z,1.20
2022-08-02T10:54:39.618Z,1.20
2022-08-02T11:00:01.364Z,1.50
2022-08-02T11:02:38.708Z,1.20
2022-08-02T11:05:16.314Z,1.60
2022-08-02T11:07:50.385Z,1.40
2022-08-02T11:10:34.111Z,1.40
2022-08-02T11:13:08.439Z,1.30
2022-08-02T11:15:54.052Z,1.70
2022-08-02T11:18:24.527Z,1.80
2022-08-02T11:21:28.627Z,1.30
2022-08-02T11:24:17.198Z,1.40
2022-08-02T11:26:45.832Z,1.40
2022-08-02T11:29:15.590Z,1.30
2022-08-02T11:31:47.620Z,3.20
2022-08-02T11:34:36.449Z,2.10
2022-08-02T11:37:05.965Z,1.60
2022-08-02T11:39:34.601Z,1.70
2022-08-02T11:42:03.494Z,1.90
2022-08-02T11:44:41.653Z,1.60
2022-08-02T11:47:10.390Z,1.90
2022-08-02T11:49:38.991Z,1.20
2022-08-02T11:52:11.534Z,2.00
2022-08-02T11:54:42.686Z,1.60
2022-08-02T11:57:21.620Z,1.60
2022-08-02T11:59:53.205Z,1.70
2022-08-02T12:02:30.158Z,1.20
2022-08-02T12:05:02.136Z,1.70
2022-08-02T12:07:36.931Z,1.40
2022-08-02T12:10:18.754Z,1.30
2022-08-02T12:13:05.745Z,1.80
2022-08-02T12:15:41.816Z,1.40
2022-08-02T12:18:31.384Z,1.10
2022-08-02T12:21:00.507Z,1.60
2022-08-02T12:23:29.791Z,1.10
2022-08-02T12:26:03.752Z,1.20
2022-08-02T12:28:40.756Z,1.20
2022-08-02T12:31:11.531Z,1.60
2022-08-02T12:33:54.098Z,1.50
2022-08-02T12:36:28.071Z,1.60
2022-08-02T12:38:59.294Z,1.70
2022-08-02T12:41:31.764Z,1.00
2022-08-02T12:44:01.180Z,1.60
2022-08-02T12:46:31.782Z,1.20
2022-08-02T12:49:18.339Z,1.20
2022-08-02T12:51:58.999Z,1.50
2022-08-02T12:54:32.834Z,1.20
2022-08-02T12:57:12.936Z,1.20
2022-08-02T12:59:45.275Z,1.70
2022-08-02T13:02:14.982Z,1.90
2022-08-02T13:04:49.933Z,1.00
2022-08-02T13:07:20.045Z,1.20
2022-08-02T13:09:50.264Z,1.30
2022-08-02T13:12:18.609Z,1.70
2022-08-02T13:14:47.332Z,1.20
2022-08-02T13:17:15.905Z,1.40
2022-08-02T13:19:44.108Z,1.00
2022-08-02T13:22:13.363Z,1.10
2022-08-02T13:24:55.883Z,2.10
2022-08-02T13:27:26.840Z,1.20
2022-08-02T13:29:57.356Z,1.40
2022-08-02T13:32:28.185Z,1.40
2022-08-02T13:34:58.244Z,1.30
2022-08-02T13:37:26.520Z,1.40
2022-08-02T13:40:20.170Z,1.20
2022-08-02T13:42:43.905Z,1.30
2022-08-02T13:45:14.433Z,1.30
2022-08-02T13:48:03.469Z,1.40
2022-08-02T13:50:34.162Z,1.60
2022-08-02T13:53:02.374Z,1.50
2022-08-02T13:55:31.145Z,1.10
2022-08-02T13:58:00.316Z,1.40
2022-08-02T14:00:35.410Z,1.40
2022-08-02T14:03:11.948Z,1.00
2022-08-02T14:05:48.535Z,1.20
2022-08-02T14:08:19.395Z,1.20
2022-08-02T14:10:51.612Z,1.50
2022-08-02T14:13:20.460Z,0.90
2022-08-02T14:15:49.202Z,1.00
2022-08-02T14:18:17.990Z,1.00
2022-08-02T14:20:47.189Z,1.40
2022-08-02T14:23:15.539Z,1.40
2022-08-02T14:25:43.824Z,1.50
2022-08-02T14:28:12.707Z,1.30
2022-08-02T14:30:40.907Z,1.60
2022-08-02T14:33:09.180Z,1.30
2022-08-02T14:35:38.356Z,1.20
2022-08-02T14:38:07.268Z,1.60
2022-08-02T14:40:36.234Z,1.50
2022-08-02T14:43:05.334Z,1.40
2022-08-02T14:45:36.725Z,1.30
2022-08-02T14:48:12.250Z,1.40
2022-08-02T14:50:40.746Z,1.40
2022-08-02T14:53:12.098Z,1.30
2022-08-02T14:55:43.175Z,1.10
2022-08-02T14:58:12.309Z,1.60
2022-08-02T15:00:41.583Z,1.40
2022-08-02T15:03:12.021Z,1.50
2022-08-02T15:05:40.605Z,1.20
2022-08-02T15:08:08.986Z,1.50
2022-08-02T15:10:38.182Z,1.40
2022-08-02T15:13:07.429Z,1.40
2022-08-02T15:15:43.050Z,1.40
2022-08-02T15:18:14.531Z,2.10
2022-08-02T15:20:45.375Z,1.30
2022-08-02T15:23:37.101Z,1.20
2022-08-02T15:26:06.261Z,1.20
2022-08-02T15:28:35.333Z,1.90
2022-08-02T15:31:03.607Z,1.10
2022-08-02T15:33:32.089Z,1.20
2022-08-02T15:36:01.129Z,0.90
2022-08-02T15:38:29.619Z,1.30
2022-08-02T15:40:58.114Z,1.30
2022-08-02T15:43:26.580Z,1.30
2022-08-02T15:45:55.111Z,1.20
2022-08-02T15:48:23.411Z,1.10
2022-08-02T15:50:52.382Z,1.20
2022-08-02T15:53:20.735Z,2.20
2022-08-02T15:56:04.223Z,1.10
2022-08-02T15:58:44.213Z,1.40
2022-08-02T16:01:13.535Z,1.40
2022-08-02T16:03:42.250Z,1.40
2022-08-02T16:06:10.534Z,1.40
2022-08-02T16:08:39.027Z,1.20
2022-08-02T16:11:23.086Z,1.50
2022-08-02T16:13:54.148Z,1.40
2022-08-02T16:16:25.250Z,1.20
2022-08-02T16:18:54.243Z,1.40
2022-08-02T16:21:23.811Z,1.40
2022-08-02T16:23:59.200Z,1.10
2022-08-02T16:26:32.070Z,1.20
2022-08-02T16:29:01.921Z,0.90
2022-08-02T16:31:30.768Z,1.10
2022-08-02T16:33:59.220Z,1.50
2022-08-02T16:36:28.623Z,0.90
2022-08-02T16:38:57.116Z,1.20
2022-08-02T16:41:45.568Z,1.00
2022-08-02T16:44:15.569Z,1.30
2022-08-02T16:46:45.588Z,1.20
2022-08-02T16:50:05.874Z,0.90
2022-08-02T16:52:03.600Z,1.10
2022-08-02T16:54:31.919Z,1.40
2022-08-02T16:57:00.605Z,0.90
2022-08-02T16:59:34.027Z,1.00
2022-08-02T17:02:17.908Z,1.00
2022-08-02T17:04:47.586Z,1.20
2022-08-02T17:08:07.385Z,1.10
2022-08-02T17:10:09.515Z,1.10
2022-08-02T17:12:39.254Z,1.20
2022-08-02T17:16:17.259Z,1.00
2022-08-02T17:17:57.823Z,1.70
2022-08-02T17:20:26.464Z,1.10
2022-08-02T17:22:54.841Z,1.40
2022-08-02T17:25:24.769Z,1.30
2022-08-02T17:27:55.874Z,1.10
2022-08-02T17:30:26.627Z,0.90
2022-08-02T17:32:59.238Z,0.90
2022-08-02T17:35:39.958Z,1.20
2022-08-02T17:38:26.103Z,1.30
2022-08-02T17:40:55.883Z,1.00
2022-08-02T17:43:29.006Z,1.30
2022-08-02T17:46:01.004Z,1.40
2022-08-02T17:48:55.069Z,1.30
2022-08-02T17:52:49.188Z,2.40
2022-08-02T17:54:28.740Z,1.30
2022-08-02T17:56:58.891Z,2.10
2022-08-02T17:59:30.871Z,1.10
2022-08-02T18:02:11.520Z,1.00
2022-08-02T18:04:40.078Z,1.20
2022-08-02T18:07:10.285Z,1.40
2022-08-02T18:09:43.511Z,1.40
2022-08-02T18:12:15.041Z,1.50
2022-08-02T18:14:49.066Z,4.10
2022-08-02T18:17:17.835Z,2.50
2022-08-02T18:19:57.497Z,1.70
2022-08-02T18:22:28.020Z,2.40
2022-08-02T18:24:56.531Z,2.80
2022-08-02T18:27:24.970Z,2.60
2022-08-02T18:30:04.043Z,1.60
2022-08-02T18:33:53.938Z,1.20
2022-08-02T18:35:23.616Z,1.10
2022-08-02T18:37:57.173Z,3.50
2022-08-02T18:40:30.076Z,3.50
2022-08-02T18:42:58.970Z,1.50
2022-08-02T18:45:42.075Z,1.70
2022-08-02T18:48:20.556Z,1.40
2022-08-02T18:50:50.548Z,2.10
2022-08-02T18:53:39.296Z,6.10
2022-08-02T18:56:08.083Z,2.40
2022-08-02T18:58:36.490Z,1.40
2022-08-02T19:01:14.842Z,1.50
2022-08-02T19:03:50.919Z,1.30
2022-08-02T19:06:20.212Z,1.50
2022-08-02T19:09:05.350Z,1.60
2022-08-02T19:11:40.935Z,1.20
2022-08-02T19:14:10.455Z,1.30
2022-08-02T19:16:38.944Z,1.50
2022-08-02T19:19:07.360Z,3.00
2022-08-02T19:22:17.276Z,2.20
2022-08-02T19:24:25.029Z,1.40
2022-08-02T19:26:55.067Z,1.50
2022-08-02T19:29:25.183Z,1.10
2022-08-02T19:32:42.422Z,0.90
2022-08-02T19:35:04.035Z,1.20
2022-08-02T19:37:53.194Z,0.80
2022-08-02T19:40:24.661Z,1.20
2022-08-02T19:45:49.035Z,1.00
2022-08-02T19:48:23.874Z,1.10
2022-08-02T19:50:59.244Z,1.40
2022-08-02T19:56:25.180Z,1.40
2022-08-02T19:58:57.796Z,1.50
2022-08-02T20:01:36.964Z,1.20
2022-08-02T20:04:12.929Z,1.50
2022-08-02T20:06:46.105Z,1.30
2022-08-02T20:09:21.236Z,1.20
2022-08-02T20:11:54.376Z,1.70
2022-08-02T20:14:27.369Z,1.30
2022-08-02T20:16:57.395Z,1.60
2022-08-02T20:19:29.567Z,1.40
2022-08-02T20:22:09.409Z,1.10
2022-08-02T20:24:38.284Z,1.80
2022-08-02T20:27:07.894Z,1.50
2022-08-02T20:29:43.030Z,1.50
2022-08-02T20:32:17.474Z,1.40
2022-08-02T20:34:48.659Z,1.20
2022-08-02T20:37:59.455Z,1.90
2022-08-02T20:40:07.271Z,2.00
2022-08-02T20:42:36.126Z,1.40
2022-08-02T20:45:05.921Z,1.60
2022-08-02T20:47:40.006Z,1.70
2022-08-02T20:53:18.396Z,1.40
2022-08-02T20:55:54.661Z,1.80
2022-08-02T20:58:27.358Z,6.00
2022-08-02T21:00:59.920Z,11.80
2022-08-02T21:03:38.899Z,5.10
2022-08-02T21:06:10.185Z,1.90
2022-08-02T21:08:39.477Z,1.50
2022-08-02T21:11:09.182Z,1.40
2022-08-02T21:13:47.349Z,1.60
2022-08-02T21:16:26.607Z,1.60
2022-08-02T21:19:00.174Z,1.80
2022-08-02T21:21:29.822Z,1.60
2022-08-02T21:24:00.261Z,1.90
2022-08-02T21:26:30.995Z,1.80
2022-08-02T21:29:03.491Z,2.00
2022-08-02T21:31:35.775Z,2.30
2022-08-02T21:34:07.571Z,2.10
2022-08-02T21:36:51.038Z,1.90
2022-08-02T21:39:20.658Z,1.70
2022-08-02T21:41:49.464Z,1.60
2022-08-02T21:44:20.381Z,1.70
2022-08-02T21:46:51.748Z,1.80
2022-08-02T21:49:27.418Z,2.00
2022-08-02T21:52:11.246Z,1.40
2022-08-02T21:54:40.833Z,2.80
2022-08-02T21:57:16.585Z,2.60
2022-08-02T21:59:46.690Z,2.40
2022-08-02T22:02:18.411Z,1.30
2022-08-02T22:04:47.775Z,1.70
2022-08-02T22:07:24.351Z,1.90
2022-08-02T22:09:53.558Z,4.50
2022-08-02T22:12:26.421Z,4.20
2022-08-02T22:14:56.501Z,4.30
2022-08-02T22:17:51.424Z,6.40
2022-08-02T22:20:18.238Z,2.90
2022-08-02T22:22:50.083Z,2.30
2022-08-02T22:25:27.230Z,2.10
2022-08-02T22:28:36.023Z,1.70
2022-08-02T22:30:56.795Z,2.10
2022-08-02T22:33:47.265Z,2.10
2022-08-02T22:36:30.516Z,1.80
2022-08-02T22:39:00.444Z,2.00
2022-08-02T22:42:01.568Z,2.30
2022-08-02T22:44:18.785Z,2.00
2022-08-02T22:46:49.995Z,2.40
2022-08-02T22:49:36.979Z,2.50
2022-08-02T22:52:07.858Z,2.30
2022-08-02T22:54:36.707Z,2.00
2022-08-02T22:57:06.650Z,1.70
2022-08-02T22:58:53.720Z,1.30
2022-08-02T22:59:05.254Z,1.40
2022-08-02T22:59:05.255Z,1.50
2022-08-02T22:59:36.047Z,1.40
2022-08-02T23:02:10.406Z,1.70
2022-08-02T23:04:38.853Z,1.60
2022-08-02T23:07:07.154Z,1.90
2022-08-02T23:09:36.107Z,1.50
2022-08-02T23:12:05.114Z,2.40
2022-08-02T23:14:33.397Z,1.80
2022-08-02T23:17:20.903Z,2.60
2022-08-02T23:19:51.853Z,1.80
2022-08-02T23:22:29.959Z,1.60
2022-08-02T23:25:01.508Z,1.60
2022-08-02T23:27:31.765Z,1.50
2022-08-02T23:30:01.050Z,1.40
2022-08-02T23:32:29.376Z,2.00
2022-08-02T23:34:58.973Z,1.40
2022-08-02T23:37:27.379Z,2.10
2022-08-02T23:39:55.691Z,1.60
2022-08-02T23:42:25.664Z,1.60
2022-08-02T23:44:54.387Z,1.50
2022-08-02T23:47:22.622Z,1.50
2022-08-02T23:49:51.553Z,1.20
2022-08-02T23:52:20.248Z,1.60
2022-08-02T23:54:48.466Z,1.40
2022-08-02T23:57:20.087Z,1.50
2022-08-02T23:59:52.734Z,1.50
